sensor_id;sensor_type;location;lat;lon;timestamp;temperature;humidity
21551;DHT22;10936;49.836;7.078;2022-11-20T07:01:25;15.90;98.10
21551;DHT22;10936;49.836;7.078;2022-11-20T07:03:50;16.00;97.90
21551;DHT22;10936;49.836;7.078;2022-11-20T07:06:19;16.10;97.80
21551;DHT22;10936;49.836;7.078;2022-11-20T07:08:44;16.10;97.70
21551;DHT22;10936;49.836;7.078;2022-11-20T07:11:13;16.20;97.70
21551;DHT22;10936;49.836;7.078;2022-11-20T07:13:38;16.10;97.60
21551;DHT22;10936;49.836;7.078;2022-11-20T07:16:06;16.10;97.60
21551;DHT22;10936;49.836;7.078;2022-11-20T07:18:32;16.10;98.00
21551;DHT22;10936;49.836;7.078;2022-11-20T07:21:06;16.20;97.50
21551;DHT22;10936;49.836;7.078;2022-11-20T07:23:32;16.20;97.60
21551;DHT22;10936;49.836;7.078;2022-11-20T07:25:58;16.20;97.60
21551;DHT22;10936;49.836;7.078;2022-11-20T07:28:27;16.20;97.50
21551;DHT22;10936;49.836;7.078;2022-11-20T07:30:53;16.20;97.50
21551;DHT22;10936;49.836;7.078;2022-11-20T07:33:19;16.20;97.50
21551;DHT22;10936;49.836;7.078;2022-11-20T07:35:45;16.20;97.40
21551;DHT22;10936;49.836;7.078;2022-11-20T07:38:11;16.10;97.50
21551;DHT22;10936;49.836;7.078;2022-11-20T07:40:36;16.10;98.00
21551;DHT22;10936;49.836;7.078;2022-11-20T07:43:02;16.00;97.70
21551;DHT22;10936;49.836;7.078;2022-11-20T07:45:27;16.10;97.80
21551;DHT22;10936;49.836;7.078;2022-11-20T07:47:53;16.00;97.60
21551;DHT22;10936;49.836;7.078;2022-11-20T07:50:20;16.00;97.70
21551;DHT22;10936;49.836;7.078;2022-11-20T07:52:46;16.00;97.70
21551;DHT22;10936;49.836;7.078;2022-11-20T07:55:12;16.10;97.60
21551;DHT22;10936;49.836;7.078;2022-11-20T07:57:37;16.00;97.60
21551;DHT22;10936;49.836;7.078;2022-11-20T08:00:05;16.00;97.60
21551;DHT22;10936;49.836;7.078;2022-11-20T08:02:31;15.90;97.90
21551;DHT22;10936;49.836;7.078;2022-11-20T08:04:56;15.90;97.70
21551;DHT22;10936;49.836;7.078;2022-11-20T08:07:22;15.90;97.80
21551;DHT22;10936;49.836;7.078;2022-11-20T08:09:47;15.90;97.80
21551;DHT22;10936;49.836;7.078;2022-11-20T08:12:20;15.90;97.90
21551;DHT22;10936;49.836;7.078;2022-11-20T08:15:05;16.00;97.70
21551;DHT22;10936;49.836;7.078;2022-11-20T08:17:31;15.90;97.80
21551;DHT22;10936;49.836;7.078;2022-11-20T08:19:57;15.90;97.80
21551;DHT22;10936;49.836;7.078;2022-11-20T08:22:23;15.80;97.80
21551;DHT22;10936;49.836;7.078;2022-11-20T08:24:48;15.80;97.90
21551;DHT22;10936;49.836;7.078;2022-11-20T08:27:14;15.90;97.90
21551;DHT22;10936;49.836;7.078;2022-11-20T08:29:40;15.90;97.80
21551;DHT22;10936;49.836;7.078;2022-11-20T08:32:05;15.90;97.70
21551;DHT22;10936;49.836;7.078;2022-11-20T08:34:31;15.90;97.80
21551;DHT22;10936;49.836;7.078;2022-11-20T08:36:56;15.90;97.80
21551;DHT22;10936;49.836;7.078;2022-11-20T08:39:22;15.80;97.90
21551;DHT22;10936;49.836;7.078;2022-11-20T08:41:47;15.80;97.90
21551;DHT22;10936;49.836;7.078;2022-11-20T08:44:13;15.90;97.90
21551;DHT22;10936;49.836;7.078;2022-11-20T08:46:40;15.80;97.90
21551;DHT22;10936;49.836;7.078;2022-11-20T08:49:08;15.90;97.90
21551;DHT22;10936;49.836;7.078;2022-11-20T08:51:34;15.90;97.80
21551;DHT22;10936;49.836;7.078;2022-11-20T08:54:00;15.90;97.90
21551;DHT22;10936;49.836;7.078;2022-11-20T08:56:25;15.90;97.80
21551;DHT22;10936;49.836;7.078;2022-11-20T08:58:51;16.00;97.80
21551;DHT22;10936;49.836;7.078;2022-11-20T09:01:18;16.00;98.00
21551;DHT22;10936;49.836;7.078;2022-11-20T09:03:44;16.10;97.60
21551;DHT22;10936;49.836;7.078;2022-11-20T09:06:10;16.00;97.60
21551;DHT22;10936;49.836;7.078;2022-11-20T09:08:35;16.00;97.60
21551;DHT22;10936;49.836;7.078;2022-11-20T09:11:04;16.00;97.70
21551;DHT22;10936;49.836;7.078;2022-11-20T09:13:30;15.90;97.70
21551;DHT22;10936;49.836;7.078;2022-11-20T09:15:59;15.90;97.60
21551;DHT22;10936;49.836;7.078;2022-11-20T09:18:26;15.90;97.60
21551;DHT22;10936;49.836;7.078;2022-11-20T09:20:56;15.90;97.60
21551;DHT22;10936;49.836;7.078;2022-11-20T09:23:22;15.80;97.70
21551;DHT22;10936;49.836;7.078;2022-11-20T09:25:48;15.90;97.60
21551;DHT22;10936;49.836;7.078;2022-11-20T09:28:13;15.80;97.70
21551;DHT22;10936;49.836;7.078;2022-11-20T09:30:39;15.80;97.70
21551;DHT22;10936;49.836;7.078;2022-11-20T09:33:05;15.80;97.70
21551;DHT22;10936;49.836;7.078;2022-11-20T09:35:32;15.80;97.80
21551;DHT22;10936;49.836;7.078;2022-11-20T09:37:57;15.80;97.90
21551;DHT22;10936;49.836;7.078;2022-11-20T09:40:28;15.90;97.90
21551;DHT22;10936;49.836;7.078;2022-11-20T09:43:19;15.90;97.70
21551;DHT22;10936;49.836;7.078;2022-11-20T09:54:15;16.00;97.70
21551;DHT22;10936;49.836;7.078;2022-11-20T09:56:45;16.00;97.70
21551;DHT22;10936;49.836;7.078;2022-11-20T09:59:32;16.00;97.60
21551;DHT22;10936;49.836;7.078;2022-11-20T10:02:00;16.00;97.50
21551;DHT22;10936;49.836;7.078;2022-11-20T10:04:30;16.00;97.60
21551;DHT22;10936;49.836;7.078;2022-11-20T10:07:00;16.00;97.60
21551;DHT22;10936;49.836;7.078;2022-11-20T10:09:31;16.00;97.60
21551;DHT22;10936;49.836;7.078;2022-11-20T10:12:12;16.00;97.60
21551;DHT22;10936;49.836;7.078;2022-11-20T10:15:01;16.10;97.50
21551;DHT22;10936;49.836;7.078;2022-11-20T10:17:53;16.10;97.90
21551;DHT22;10936;49.836;7.078;2022-11-20T10:20:32;16.20;98.00
21551;DHT22;10936;49.836;7.078;2022-11-20T10:23:27;16.30;98.40
21551;DHT22;10936;49.836;7.078;2022-11-20T10:26:33;16.30;98.60
21551;DHT22;10936;49.836;7.078;2022-11-20T10:29:19;16.50;98.70
21551;DHT22;10936;49.836;7.078;2022-11-20T10:31:59;16.50;98.70
21551;DHT22;10936;49.836;7.078;2022-11-20T10:34:57;16.60;98.80
21551;DHT22;10936;49.836;7.078;2022-11-20T10:37:27;16.60;98.90
21551;DHT22;10936;49.836;7.078;2022-11-20T10:42:37;16.70;98.90
21551;DHT22;10936;49.836;7.078;2022-11-20T10:48:04;16.90;98.80
21551;DHT22;10936;49.836;7.078;2022-11-20T10:50:37;17.00;98.60
21551;DHT22;10936;49.836;7.078;2022-11-20T10:55:50;17.10;98.50
21551;DHT22;10936;49.836;7.078;2022-11-20T10:58:37;17.20;98.50
21551;DHT22;10936;49.836;7.078;2022-11-20T11:01:26;17.30;98.40
21551;DHT22;10936;49.836;7.078;2022-11-20T11:03:53;17.40;98.20
21551;DHT22;10936;49.836;7.078;2022-11-20T11:06:37;17.50;98.20
21551;DHT22;10936;49.836;7.078;2022-11-20T11:09:13;17.50;98.10
21551;DHT22;10936;49.836;7.078;2022-11-20T11:11:41;17.60;98.00
21551;DHT22;10936;49.836;7.078;2022-11-20T11:14:09;17.70;97.90
21551;DHT22;10936;49.836;7.078;2022-11-20T11:16:35;17.80;97.90
21551;DHT22;10936;49.836;7.078;2022-11-20T11:19:12;17.90;97.80
21551;DHT22;10936;49.836;7.078;2022-11-20T11:21:38;17.90;97.80
21551;DHT22;10936;49.836;7.078;2022-11-20T11:24:21;18.00;97.70
21551;DHT22;10936;49.836;7.078;2022-11-20T11:26:57;18.10;97.60
21551;DHT22;10936;49.836;7.078;2022-11-20T11:29:23;18.10;97.50
21551;DHT22;10936;49.836;7.078;2022-11-20T11:32:06;18.20;97.50
21551;DHT22;10936;49.836;7.078;2022-11-20T11:34:32;18.30;97.40
21551;DHT22;10936;49.836;7.078;2022-11-20T11:36:59;18.40;97.30
21551;DHT22;10936;49.836;7.078;2022-11-20T11:39:27;18.40;97.30
21551;DHT22;10936;49.836;7.078;2022-11-20T11:41:54;18.50;97.20
21551;DHT22;10936;49.836;7.078;2022-11-20T11:44:23;18.60;97.10
21551;DHT22;10936;49.836;7.078;2022-11-20T11:49:47;18.70;96.90
21551;DHT22;10936;49.836;7.078;2022-11-20T11:52:18;18.80;96.90
21551;DHT22;10936;49.836;7.078;2022-11-20T11:54:52;18.90;97.00
21551;DHT22;10936;49.836;7.078;2022-11-20T12:00:16;19.00;97.20
21551;DHT22;10936;49.836;7.078;2022-11-20T12:05:38;19.20;96.80
21551;DHT22;10936;49.836;7.078;2022-11-20T12:08:19;19.20;96.70
21551;DHT22;10936;49.836;7.078;2022-11-20T12:11:17;19.30;96.60
21551;DHT22;10936;49.836;7.078;2022-11-20T12:14:19;19.40;96.50
21551;DHT22;10936;49.836;7.078;2022-11-20T12:16:50;19.50;96.40
21551;DHT22;10936;49.836;7.078;2022-11-20T12:19:16;19.60;96.30
21551;DHT22;10936;49.836;7.078;2022-11-20T12:24:39;19.70;96.00
21551;DHT22;10936;49.836;7.078;2022-11-20T12:30:11;20.00;96.00
21551;DHT22;10936;49.836;7.078;2022-11-20T12:55:53;21.00;95.20
21551;DHT22;10936;49.836;7.078;2022-11-20T12:58:53;21.10;95.10
21551;DHT22;10936;49.836;7.078;2022-11-20T13:01:40;21.20;95.10
21551;DHT22;10936;49.836;7.078;2022-11-20T13:04:34;21.30;95.00
21551;DHT22;10936;49.836;7.078;2022-11-20T13:07:06;21.30;94.90
21551;DHT22;10936;49.836;7.078;2022-11-20T13:09:34;21.40;94.80
21551;DHT22;10936;49.836;7.078;2022-11-20T13:12:06;21.50;94.80
21551;DHT22;10936;49.836;7.078;2022-11-20T13:14:46;21.60;94.70
21551;DHT22;10936;49.836;7.078;2022-11-20T13:19:52;21.70;94.60
21551;DHT22;10936;49.836;7.078;2022-11-20T13:22:44;21.80;94.50
21551;DHT22;10936;49.836;7.078;2022-11-20T13:25:32;21.80;94.50
21551;DHT22;10936;49.836;7.078;2022-11-20T13:27:58;21.90;94.20
21551;DHT22;10936;49.836;7.078;2022-11-20T13:30:28;22.00;94.30
21551;DHT22;10936;49.836;7.078;2022-11-20T13:32:55;22.00;94.30
21551;DHT22;10936;49.836;7.078;2022-11-20T13:35:53;22.10;94.30
21551;DHT22;10936;49.836;7.078;2022-11-20T13:38:19;22.10;94.20
21551;DHT22;10936;49.836;7.078;2022-11-20T13:40:56;22.10;94.20
21551;DHT22;10936;49.836;7.078;2022-11-20T13:43:26;22.20;94.20
21551;DHT22;10936;49.836;7.078;2022-11-20T13:46:01;22.20;94.20
21551;DHT22;10936;49.836;7.078;2022-11-20T13:48:31;22.20;94.20
21551;DHT22;10936;49.836;7.078;2022-11-20T14:01:35;22.10;94.30
21551;DHT22;10936;49.836;7.078;2022-11-20T14:04:08;22.10;94.30
21551;DHT22;10936;49.836;7.078;2022-11-20T14:06:44;22.10;94.30
21551;DHT22;10936;49.836;7.078;2022-11-20T14:09:23;22.10;94.40
21551;DHT22;10936;49.836;7.078;2022-11-20T14:11:49;22.10;94.50
21551;DHT22;10936;49.836;7.078;2022-11-20T14:14:17;22.10;94.50
21551;DHT22;10936;49.836;7.078;2022-11-20T14:16:44;22.10;94.50
21551;DHT22;10936;49.836;7.078;2022-11-20T14:21:46;22.10;94.50
21551;DHT22;10936;49.836;7.078;2022-11-20T14:24:13;22.20;94.50
21551;DHT22;10936;49.836;7.078;2022-11-20T14:26:43;22.20;94.50
21551;DHT22;10936;49.836;7.078;2022-11-20T14:29:20;22.20;94.50
21551;DHT22;10936;49.836;7.078;2022-11-20T14:31:50;22.30;94.50
21551;DHT22;10936;49.836;7.078;2022-11-20T14:34:20;22.30;94.50
21551;DHT22;10936;49.836;7.078;2022-11-20T14:36:46;22.40;94.50
21551;DHT22;10936;49.836;7.078;2022-11-20T14:39:20;22.50;94.60
21551;DHT22;10936;49.836;7.078;2022-11-20T14:41:53;22.50;94.50
21551;DHT22;10936;49.836;7.078;2022-11-20T14:44:27;22.50;94.50
21551;DHT22;10936;49.836;7.078;2022-11-20T14:46:54;22.60;94.50
21551;DHT22;10936;49.836;7.078;2022-11-20T14:49:20;22.60;94.40
21551;DHT22;10936;49.836;7.078;2022-11-20T14:51:46;22.70;94.30
21551;DHT22;10936;49.836;7.078;2022-11-20T14:54:15;22.70;94.30
21551;DHT22;10936;49.836;7.078;2022-11-20T14:56:41;22.80;94.30
21551;DHT22;10936;49.836;7.078;2022-11-20T14:59:08;22.80;94.30
21551;DHT22;10936;49.836;7.078;2022-11-20T15:01:34;22.80;94.20
21551;DHT22;10936;49.836;7.078;2022-11-20T15:04:05;22.80;94.20
21551;DHT22;10936;49.836;7.078;2022-11-20T15:06:31;22.80;94.20
21551;DHT22;10936;49.836;7.078;2022-11-20T15:08:57;22.80;94.20
21551;DHT22;10936;49.836;7.078;2022-11-20T15:11:29;22.90;94.30
21551;DHT22;10936;49.836;7.078;2022-11-20T15:13:56;22.80;94.20
21551;DHT22;10936;49.836;7.078;2022-11-20T15:16:23;22.80;94.20
21551;DHT22;10936;49.836;7.078;2022-11-20T15:18:50;22.80;94.20
21551;DHT22;10936;49.836;7.078;2022-11-20T15:21:18;22.80;94.30
21551;DHT22;10936;49.836;7.078;2022-11-20T15:23:44;22.80;94.30
21551;DHT22;10936;49.836;7.078;2022-11-20T15:26:11;22.80;94.30
21551;DHT22;10936;49.836;7.078;2022-11-20T15:28:45;22.70;94.30
21551;DHT22;10936;49.836;7.078;2022-11-20T15:31:14;22.70;94.30
21551;DHT22;10936;49.836;7.078;2022-11-20T15:33:40;22.70;94.50
21551;DHT22;10936;49.836;7.078;2022-11-20T15:36:06;22.70;94.40
21551;DHT22;10936;49.836;7.078;2022-11-20T15:38:31;22.60;94.30
21551;DHT22;10936;49.836;7.078;2022-11-20T15:40:57;22.60;94.50
21551;DHT22;10936;49.836;7.078;2022-11-20T15:43:23;22.60;94.40
21551;DHT22;10936;49.836;7.078;2022-11-20T15:45:55;22.60;94.50
21551;DHT22;10936;49.836;7.078;2022-11-20T15:48:26;22.50;94.50
21551;DHT22;10936;49.836;7.078;2022-11-20T15:51:02;22.50;94.50
21551;DHT22;10936;49.836;7.078;2022-11-20T15:53:29;22.50;94.50
21551;DHT22;10936;49.836;7.078;2022-11-20T15:55:55;22.50;94.50
21551;DHT22;10936;49.836;7.078;2022-11-20T15:58:20;22.40;94.60
21551;DHT22;10936;49.836;7.078;2022-11-20T16:00:48;22.40;94.60
21551;DHT22;10936;49.836;7.078;2022-11-20T16:03:14;22.40;94.60
21551;DHT22;10936;49.836;7.078;2022-11-20T16:05:40;22.30;94.60
21551;DHT22;10936;49.836;7.078;2022-11-20T16:08:06;22.30;94.70
21551;DHT22;10936;49.836;7.078;2022-11-20T16:10:32;22.30;94.80
21551;DHT22;10936;49.836;7.078;2022-11-20T16:12:57;22.30;94.80
21551;DHT22;10936;49.836;7.078;2022-11-20T16:15:50;22.20;94.80
21551;DHT22;10936;49.836;7.078;2022-11-20T16:18:17;22.20;94.80
21551;DHT22;10936;49.836;7.078;2022-11-20T16:20:45;22.20;94.80
21551;DHT22;10936;49.836;7.078;2022-11-20T16:23:10;22.10;94.90
21551;DHT22;10936;49.836;7.078;2022-11-20T16:25:36;22.10;94.90
21551;DHT22;10936;49.836;7.078;2022-11-20T16:28:02;22.10;94.90
21551;DHT22;10936;49.836;7.078;2022-11-20T16:30:28;22.10;95.00
21551;DHT22;10936;49.836;7.078;2022-11-20T16:32:53;22.10;95.00
21551;DHT22;10936;49.836;7.078;2022-11-20T16:35:19;22.00;94.90
21551;DHT22;10936;49.836;7.078;2022-11-20T16:37:44;22.00;95.00
21551;DHT22;10936;49.836;7.078;2022-11-20T16:40:10;22.00;95.00
21551;DHT22;10936;49.836;7.078;2022-11-20T16:42:37;21.90;95.00
21551;DHT22;10936;49.836;7.078;2022-11-20T16:45:03;21.90;95.10
21551;DHT22;10936;49.836;7.078;2022-11-20T16:47:35;21.90;95.10
21551;DHT22;10936;49.836;7.078;2022-11-20T16:50:02;21.80;95.10
21551;DHT22;10936;49.836;7.078;2022-11-20T16:52:29;21.90;95.10
21551;DHT22;10936;49.836;7.078;2022-11-20T16:54:54;21.80;95.10
21551;DHT22;10936;49.836;7.078;2022-11-20T16:57:20;21.80;95.10
21551;DHT22;10936;49.836;7.078;2022-11-20T16:59:45;21.70;95.10
21551;DHT22;10936;49.836;7.078;2022-11-20T17:02:11;21.80;95.20
21551;DHT22;10936;49.836;7.078;2022-11-20T17:04:36;21.70;95.20
21551;DHT22;10936;49.836;7.078;2022-11-20T17:07:02;21.70;95.20
21551;DHT22;10936;49.836;7.078;2022-11-20T17:09:28;21.60;95.10
21551;DHT22;10936;49.836;7.078;2022-11-20T17:11:53;21.60;95.20
21551;DHT22;10936;49.836;7.078;2022-11-20T17:14:19;21.60;95.20
21551;DHT22;10936;49.836;7.078;2022-11-20T17:16:44;21.60;95.20
21551;DHT22;10936;49.836;7.078;2022-11-20T17:19:10;21.60;95.30
21551;DHT22;10936;49.836;7.078;2022-11-20T17:21:37;21.60;95.30
21551;DHT22;10936;49.836;7.078;2022-11-20T17:24:06;21.50;95.30
21551;DHT22;10936;49.836;7.078;2022-11-20T17:26:32;21.50;95.30
21551;DHT22;10936;49.836;7.078;2022-11-20T17:29:04;21.40;95.30
21551;DHT22;10936;49.836;7.078;2022-11-20T17:31:32;21.50;95.40
21551;DHT22;10936;49.836;7.078;2022-11-20T17:33:58;21.40;95.40
21551;DHT22;10936;49.836;7.078;2022-11-20T17:36:25;21.40;95.40
21551;DHT22;10936;49.836;7.078;2022-11-20T17:38:51;21.40;95.40
21551;DHT22;10936;49.836;7.078;2022-11-20T17:41:19;21.40;95.40
21551;DHT22;10936;49.836;7.078;2022-11-20T17:43:45;21.40;95.50
21551;DHT22;10936;49.836;7.078;2022-11-20T17:46:16;21.30;95.50
21551;DHT22;10936;49.836;7.078;2022-11-20T17:48:42;21.30;95.50
21551;DHT22;10936;49.836;7.078;2022-11-20T17:51:11;21.30;95.50
21551;DHT22;10936;49.836;7.078;2022-11-20T17:53:38;21.30;95.50
21551;DHT22;10936;49.836;7.078;2022-11-20T17:56:05;21.20;95.50
21551;DHT22;10936;49.836;7.078;2022-11-20T17:58:49;21.20;95.50
21551;DHT22;10936;49.836;7.078;2022-11-20T18:01:15;21.20;95.60
21551;DHT22;10936;49.836;7.078;2022-11-20T18:03:41;21.20;95.60
21551;DHT22;10936;49.836;7.078;2022-11-20T18:06:27;21.20;95.60
21551;DHT22;10936;49.836;7.078;2022-11-20T18:08:53;21.20;95.60
21551;DHT22;10936;49.836;7.078;2022-11-20T18:11:21;21.10;95.60
21551;DHT22;10936;49.836;7.078;2022-11-20T18:13:49;21.10;95.60
21551;DHT22;10936;49.836;7.078;2022-11-20T18:16:37;21.10;95.60
21551;DHT22;10936;49.836;7.078;2022-11-20T18:19:03;21.10;95.60
21551;DHT22;10936;49.836;7.078;2022-11-20T18:21:30;21.10;95.60
21551;DHT22;10936;49.836;7.078;2022-11-20T18:23:56;21.10;95.60
21551;DHT22;10936;49.836;7.078;2022-11-20T18:26:23;21.00;95.60
21551;DHT22;10936;49.836;7.078;2022-11-20T18:28:50;21.00;95.70
21551;DHT22;10936;49.836;7.078;2022-11-20T18:31:16;21.00;95.70
21551;DHT22;10936;49.836;7.078;2022-11-20T18:33:42;21.00;95.70
21551;DHT22;10936;49.836;7.078;2022-11-20T18:36:12;20.90;95.70
21551;DHT22;10936;49.836;7.078;2022-11-20T18:38:40;21.00;95.70
21551;DHT22;10936;49.836;7.078;2022-11-20T18:41:08;20.90;95.70
21551;DHT22;10936;49.836;7.078;2022-11-20T18:43:53;20.90;95.70
21551;DHT22;10936;49.836;7.078;2022-11-20T18:46:38;20.90;95.70
21551;DHT22;10936;49.836;7.078;2022-11-20T18:49:03;20.90;95.80
21551;DHT22;10936;49.836;7.078;2022-11-20T18:51:29;20.90;95.80
21551;DHT22;10936;49.836;7.078;2022-11-20T18:53:54;20.80;95.80
21551;DHT22;10936;49.836;7.078;2022-11-20T18:56:20;20.80;95.80
21551;DHT22;10936;49.836;7.078;2022-11-20T18:58:45;20.80;95.80
21551;DHT22;10936;49.836;7.078;2022-11-20T19:01:11;20.80;95.80
21551;DHT22;10936;49.836;7.078;2022-11-20T19:03:37;20.80;95.80
21551;DHT22;10936;49.836;7.078;2022-11-20T19:06:02;20.80;95.80
21551;DHT22;10936;49.836;7.078;2022-11-20T19:08:28;20.80;95.80
21551;DHT22;10936;49.836;7.078;2022-11-20T19:10:54;20.80;95.80
21551;DHT22;10936;49.836;7.078;2022-11-20T19:13:19;20.80;95.80
21551;DHT22;10936;49.836;7.078;2022-11-20T19:15:45;20.80;95.90
21551;DHT22;10936;49.836;7.078;2022-11-20T19:18:10;20.80;95.90
21551;DHT22;10936;49.836;7.078;2022-11-20T19:20:36;20.70;95.80
21551;DHT22;10936;49.836;7.078;2022-11-20T19:23:01;20.70;95.90
21551;DHT22;10936;49.836;7.078;2022-11-20T19:25:29;20.70;95.80
21551;DHT22;10936;49.836;7.078;2022-11-20T19:27:55;20.70;95.80
21551;DHT22;10936;49.836;7.078;2022-11-20T19:30:20;20.70;95.90
21551;DHT22;10936;49.836;7.078;2022-11-20T19:32:46;20.70;95.90
21551;DHT22;10936;49.836;7.078;2022-11-20T19:35:11;20.70;96.00
21551;DHT22;10936;49.836;7.078;2022-11-20T19:37:37;20.70;96.00
21551;DHT22;10936;49.836;7.078;2022-11-20T19:40:03;20.70;96.10
21551;DHT22;10936;49.836;7.078;2022-11-20T19:42:30;20.70;96.00
21551;DHT22;10936;49.836;7.078;2022-11-20T19:44:56;20.70;96.00
21551;DHT22;10936;49.836;7.078;2022-11-20T19:47:23;20.70;96.00
21551;DHT22;10936;49.836;7.078;2022-11-20T19:49:48;20.70;96.00
21551;DHT22;10936;49.836;7.078;2022-11-20T19:52:14;20.70;96.00
21551;DHT22;10936;49.836;7.078;2022-11-20T19:54:39;20.70;96.00
21551;DHT22;10936;49.836;7.078;2022-11-20T19:57:05;20.60;96.00
21551;DHT22;10936;49.836;7.078;2022-11-20T19:59:30;20.60;96.00
21551;DHT22;10936;49.836;7.078;2022-11-20T20:01:56;20.60;96.00
21551;DHT22;10936;49.836;7.078;2022-11-20T20:04:22;20.60;96.00
21551;DHT22;10936;49.836;7.078;2022-11-20T20:06:48;20.60;96.00
21551;DHT22;10936;49.836;7.078;2022-11-20T20:09:15;20.60;96.00
21551;DHT22;10936;49.836;7.078;2022-11-20T20:11:43;20.50;96.00
21551;DHT22;10936;49.836;7.078;2022-11-20T20:14:12;20.50;96.00
21551;DHT22;10936;49.836;7.078;2022-11-20T20:16:39;20.50;96.00
21551;DHT22;10936;49.836;7.078;2022-11-20T20:19:05;20.50;96.00
21551;DHT22;10936;49.836;7.078;2022-11-20T20:21:32;20.50;96.00
21551;DHT22;10936;49.836;7.078;2022-11-20T20:23:58;20.50;96.00
21551;DHT22;10936;49.836;7.078;2022-11-20T20:26:27;20.50;96.00
21551;DHT22;10936;49.836;7.078;2022-11-20T20:28:52;20.40;96.00
21551;DHT22;10936;49.836;7.078;2022-11-20T20:31:21;20.40;96.00
21551;DHT22;10936;49.836;7.078;2022-11-20T20:33:47;20.40;96.00
21551;DHT22;10936;49.836;7.078;2022-11-20T20:36:15;20.50;96.00
21551;DHT22;10936;49.836;7.078;2022-11-20T20:38:40;20.40;96.00
21551;DHT22;10936;49.836;7.078;2022-11-20T20:41:07;20.40;96.00
21551;DHT22;10936;49.836;7.078;2022-11-20T20:43:33;20.40;96.00
21551;DHT22;10936;49.836;7.078;2022-11-20T20:46:19;20.40;96.00
21551;DHT22;10936;49.836;7.078;2022-11-20T20:48:45;20.40;96.00
21551;DHT22;10936;49.836;7.078;2022-11-20T20:51:10;20.40;96.40
21551;DHT22;10936;49.836;7.078;2022-11-20T20:53:36;20.40;96.10
21551;DHT22;10936;49.836;7.078;2022-11-20T20:56:02;20.30;96.00
21551;DHT22;10936;49.836;7.078;2022-11-20T20:58:29;20.30;96.00
21551;DHT22;10936;49.836;7.078;2022-11-20T21:01:01;20.30;96.00
21551;DHT22;10936;49.836;7.078;2022-11-20T21:03:26;20.30;96.10
21551;DHT22;10936;49.836;7.078;2022-11-20T21:05:55;20.30;96.10
21551;DHT22;10936;49.836;7.078;2022-11-20T21:08:24;20.30;96.10
21551;DHT22;10936;49.836;7.078;2022-11-20T21:10:52;20.30;96.10
21551;DHT22;10936;49.836;7.078;2022-11-20T21:13:19;20.30;96.10
21551;DHT22;10936;49.836;7.078;2022-11-20T21:15:47;20.30;96.10
21551;DHT22;10936;49.836;7.078;2022-11-20T21:18:17;20.20;96.10
21551;DHT22;10936;49.836;7.078;2022-11-20T21:20:44;20.20;96.00
21551;DHT22;10936;49.836;7.078;2022-11-20T21:23:28;20.20;96.10
21551;DHT22;10936;49.836;7.078;2022-11-20T21:25:54;20.20;96.10
21551;DHT22;10936;49.836;7.078;2022-11-20T21:28:19;20.20;96.10
21551;DHT22;10936;49.836;7.078;2022-11-20T21:30:45;20.20;96.10
21551;DHT22;10936;49.836;7.078;2022-11-20T21:33:11;20.20;96.10
21551;DHT22;10936;49.836;7.078;2022-11-20T21:35:37;20.20;96.10
21551;DHT22;10936;49.836;7.078;2022-11-20T21:38:03;20.20;96.10
21551;DHT22;10936;49.836;7.078;2022-11-20T21:40:28;20.20;96.10
21551;DHT22;10936;49.836;7.078;2022-11-20T21:42:54;20.10;96.10
21551;DHT22;10936;49.836;7.078;2022-11-20T21:45:20;20.10;96.10
21551;DHT22;10936;49.836;7.078;2022-11-20T21:47:48;20.20;96.10
21551;DHT22;10936;49.836;7.078;2022-11-20T21:50:15;20.20;96.10
21551;DHT22;10936;49.836;7.078;2022-11-20T21:52:40;20.10;96.10
21551;DHT22;10936;49.836;7.078;2022-11-20T21:55:06;20.10;96.10
21551;DHT22;10936;49.836;7.078;2022-11-20T21:57:33;20.10;96.10
21551;DHT22;10936;49.836;7.078;2022-11-20T21:59:59;20.10;96.10
21551;DHT22;10936;49.836;7.078;2022-11-20T22:02:24;20.10;96.10
21551;DHT22;10936;49.836;7.078;2022-11-20T22:04:50;20.10;96.10
21551;DHT22;10936;49.836;7.078;2022-11-20T22:07:15;20.10;96.10
21551;DHT22;10936;49.836;7.078;2022-11-20T22:09:41;20.10;96.20
21551;DHT22;10936;49.836;7.078;2022-11-20T22:12:06;20.10;96.10
21551;DHT22;10936;49.836;7.078;2022-11-20T22:14:32;20.10;96.10
21551;DHT22;10936;49.836;7.078;2022-11-20T22:16:58;20.00;96.10
21551;DHT22;10936;49.836;7.078;2022-11-20T22:19:23;20.00;96.10
21551;DHT22;10936;49.836;7.078;2022-11-20T22:21:49;20.00;96.10
21551;DHT22;10936;49.836;7.078;2022-11-20T22:24:18;20.00;96.10
21551;DHT22;10936;49.836;7.078;2022-11-20T22:26:44;20.00;96.10
21551;DHT22;10936;49.836;7.078;2022-11-20T22:29:13;20.00;96.10
